createdAt,value
2023-01-29T00:00:30.717Z,-8.47
2023-01-29T00:02:59.401Z,-8.59
2023-01-29T00:05:28.737Z,-8.73
2023-01-29T00:07:58.271Z,-8.60
2023-01-29T00:10:28.771Z,-8.57
2023-01-29T00:12:57.290Z,-8.39
2023-01-29T00:15:25.743Z,-8.48
2023-01-29T00:17:54.441Z,-8.48
2023-01-29T00:20:23.137Z,-8.59
2023-01-29T00:22:51.721Z,-8.33
2023-01-29T00:25:20.136Z,-8.30
2023-01-29T00:27:48.755Z,-8.54
2023-01-29T00:30:20.278Z,-8.26
2023-01-29T00:32:49.033Z,-8.30
2023-01-29T00:35:17.569Z,-8.21
2023-01-29T00:37:46.213Z,-8.20
2023-01-29T00:40:15.435Z,-8.24
2023-01-29T00:43:04.287Z,-8.15
2023-01-29T00:45:33.639Z,-8.20
2023-01-29T00:48:02.075Z,-8.29
2023-01-29T00:50:31.533Z,-8.12
2023-01-29T00:53:00.275Z,-8.11
2023-01-29T00:55:28.756Z,-8.31
2023-01-29T00:57:57.265Z,-8.39
2023-01-29T01:00:25.966Z,-8.07
2023-01-29T01:03:09.516Z,-8.57
2023-01-29T01:05:39.746Z,-8.17
2023-01-29T01:08:27.987Z,-8.14
2023-01-29T01:11:05.093Z,-8.02
2023-01-29T01:13:34.942Z,-7.97
2023-01-29T01:16:03.614Z,-7.98
2023-01-29T01:18:32.412Z,-8.05
2023-01-29T01:21:00.772Z,-7.91
2023-01-29T01:23:29.559Z,-7.91
2023-01-29T01:25:58.229Z,-8.11
2023-01-29T01:28:27.459Z,-7.96
2023-01-29T01:30:56.151Z,-7.77
2023-01-29T01:33:25.055Z,-7.74
2023-01-29T01:35:53.628Z,-7.73
2023-01-29T01:38:22.855Z,-7.81
2023-01-29T01:40:51.476Z,-7.73
2023-01-29T01:43:19.952Z,-8.45
2023-01-29T01:45:49.147Z,-7.79
2023-01-29T01:48:25.741Z,-7.81
2023-01-29T01:51:07.408Z,-7.76
2023-01-29T01:53:44.603Z,-7.70
2023-01-29T01:56:24.012Z,-7.95
2023-01-29T01:58:58.276Z,-7.86
2023-01-29T02:01:29.151Z,-7.77
2023-01-29T02:04:19.479Z,-7.96
2023-01-29T02:07:06.917Z,-7.86
2023-01-29T02:09:47.562Z,-8.20
2023-01-29T02:12:18.026Z,-7.82
2023-01-29T02:14:46.868Z,-7.92
2023-01-29T02:17:20.099Z,-8.15
2023-01-29T02:20:07.715Z,-7.95
2023-01-29T02:23:03.397Z,-7.81
2023-01-29T02:25:47.195Z,-7.68
2023-01-29T02:28:29.211Z,-7.74
2023-01-29T02:31:25.713Z,-7.74
2023-01-29T02:34:17.982Z,-7.77
2023-01-29T02:36:59.408Z,-7.61
2023-01-29T02:39:36.297Z,-7.58
2023-01-29T02:42:17.335Z,-7.54
2023-01-29T02:44:59.778Z,-7.53
2023-01-29T02:47:37.602Z,-7.57
2023-01-29T02:50:21.874Z,-7.47
2023-01-29T02:53:31.693Z,-7.54
2023-01-29T02:56:20.367Z,-7.50
2023-01-29T02:59:01.977Z,-7.42
2023-01-29T03:01:59.901Z,-7.53
2023-01-29T03:04:33.702Z,-7.45
2023-01-29T03:07:11.173Z,-7.44
2023-01-29T03:09:49.738Z,-7.39
2023-01-29T03:12:36.961Z,-7.46
2023-01-29T03:15:17.483Z,-7.54
2023-01-29T03:18:08.971Z,-7.27
2023-01-29T03:20:49.574Z,-7.26
2023-01-29T03:23:51.023Z,-7.16
2023-01-29T03:26:42.096Z,-7.31
2023-01-29T03:29:31.574Z,-7.15
2023-01-29T03:32:09.882Z,-7.30
2023-01-29T03:34:44.342Z,-6.98
2023-01-29T03:37:23.400Z,-7.02
2023-01-29T03:39:52.180Z,-7.09
2023-01-29T03:42:30.648Z,-6.93
2023-01-29T03:45:09.075Z,-6.92
2023-01-29T03:47:57.244Z,-6.78
2023-01-29T03:50:45.145Z,-6.94
2023-01-29T03:53:31.577Z,-6.83
2023-01-29T03:56:17.176Z,-6.68
2023-01-29T03:59:24.038Z,-6.68
2023-01-29T04:02:39.889Z,-6.76
2023-01-29T04:05:18.276Z,-6.84
2023-01-29T04:08:14.158Z,-6.56
2023-01-29T04:10:46.117Z,-6.61
2023-01-29T04:13:17.091Z,-6.75
2023-01-29T04:15:51.792Z,-6.56
2023-01-29T04:18:27.075Z,-6.51
2023-01-29T04:21:10.538Z,-6.42
2023-01-29T04:23:39.275Z,-6.37
2023-01-29T04:26:22.474Z,-6.17
2023-01-29T04:29:11.520Z,-6.24
2023-01-29T04:31:53.347Z,-6.03
2023-01-29T04:34:26.616Z,-5.93
2023-01-29T04:37:09.856Z,-6.01
2023-01-29T04:40:00.217Z,-5.82
2023-01-29T04:42:42.172Z,-5.83
2023-01-29T04:45:40.024Z,-5.73
2023-01-29T04:48:23.344Z,-5.67
2023-01-29T04:51:20.652Z,-6.10
2023-01-29T04:54:06.990Z,-5.68
2023-01-29T04:56:58.516Z,-5.72
2023-01-29T04:59:43.233Z,-5.65
2023-01-29T05:02:13.454Z,-5.38
2023-01-29T05:04:43.953Z,-5.69
2023-01-29T05:07:15.560Z,-5.19
2023-01-29T05:09:46.335Z,-5.22
2023-01-29T05:12:18.341Z,-5.24
2023-01-29T05:14:48.919Z,-5.09
2023-01-29T05:17:21.334Z,-5.29
2023-01-29T05:19:50.118Z,-5.47
2023-01-29T05:22:23.395Z,-5.05
2023-01-29T05:24:52.297Z,-5.21
2023-01-29T05:27:48.884Z,-5.01
2023-01-29T05:30:18.247Z,-4.93
2023-01-29T05:32:47.124Z,-4.88
2023-01-29T05:35:15.949Z,-4.76
2023-01-29T05:37:45.248Z,-4.90
2023-01-29T05:40:14.497Z,-4.88
2023-01-29T05:42:43.373Z,-4.73
2023-01-29T05:45:12.352Z,-4.82
2023-01-29T05:47:41.383Z,-5.01
2023-01-29T05:50:10.908Z,-4.63
2023-01-29T05:52:39.458Z,-4.72
2023-01-29T05:55:09.474Z,-4.96
2023-01-29T05:57:38.649Z,-4.83
2023-01-29T06:00:07.932Z,-4.81
2023-01-29T06:02:41.304Z,-5.09
2023-01-29T06:05:10.295Z,-5.01
2023-01-29T06:07:43.544Z,-5.05
2023-01-29T06:10:19.452Z,-4.83
2023-01-29T06:12:48.789Z,-4.81
2023-01-29T06:15:17.443Z,-5.11
2023-01-29T06:17:46.461Z,-5.14
2023-01-29T06:20:15.380Z,-5.33
2023-01-29T06:22:44.153Z,-5.21
2023-01-29T06:25:12.812Z,-5.30
2023-01-29T06:27:41.533Z,-5.46
2023-01-29T06:30:10.825Z,-5.28
2023-01-29T06:32:41.979Z,-5.28
2023-01-29T06:35:11.608Z,-5.27
2023-01-29T06:37:40.334Z,-5.20
2023-01-29T06:40:09.686Z,-5.19
2023-01-29T06:42:38.589Z,-5.08
2023-01-29T06:45:07.693Z,-5.01
2023-01-29T06:47:36.199Z,-5.06
2023-01-29T06:50:05.350Z,-4.76
2023-01-29T06:52:33.867Z,-4.64
2023-01-29T06:55:02.580Z,-4.56
2023-01-29T06:57:31.229Z,-4.51
2023-01-29T07:00:00.398Z,-4.75
2023-01-29T07:02:29.388Z,-4.52
2023-01-29T07:04:58.324Z,-4.63
2023-01-29T07:07:26.922Z,-4.79
2023-01-29T07:09:55.647Z,-4.84
2023-01-29T07:12:24.171Z,-5.01
2023-01-29T07:14:52.788Z,-5.01
2023-01-29T07:17:22.047Z,-4.68
2023-01-29T07:19:50.596Z,-4.81
2023-01-29T07:22:19.132Z,-4.41
2023-01-29T07:24:49.133Z,-4.36
2023-01-29T07:27:17.604Z,-4.60
2023-01-29T07:29:46.231Z,-4.82
2023-01-29T07:32:14.905Z,-4.75
2023-01-29T07:34:43.489Z,-4.71
2023-01-29T07:37:14.913Z,-4.62
2023-01-29T07:39:43.553Z,-4.63
2023-01-29T07:42:12.334Z,-4.42
2023-01-29T07:44:41.084Z,-4.35
2023-01-29T07:47:09.972Z,-4.30
2023-01-29T07:49:38.514Z,-3.97
2023-01-29T07:52:07.370Z,-3.95
2023-01-29T07:54:36.133Z,-3.69
2023-01-29T07:57:05.005Z,-3.91
2023-01-29T07:59:33.780Z,-3.63
2023-01-29T08:02:02.650Z,-3.58
2023-01-29T08:04:31.392Z,-3.75
2023-01-29T08:07:00.150Z,-3.55
2023-01-29T08:09:28.929Z,-3.62
2023-01-29T08:11:57.893Z,-3.43
2023-01-29T08:14:26.609Z,-3.41
2023-01-29T08:16:55.214Z,-3.51
2023-01-29T08:19:23.957Z,-3.58
2023-01-29T08:21:52.484Z,-3.63
2023-01-29T08:24:21.167Z,-3.85
2023-01-29T08:26:49.813Z,-3.84
2023-01-29T08:29:18.811Z,-3.66
2023-01-29T08:31:47.652Z,-3.81
2023-01-29T08:34:16.570Z,-3.68
2023-01-29T08:36:58.850Z,-4.28
2023-01-29T08:39:27.573Z,-4.03
2023-01-29T08:42:01.318Z,-4.13
2023-01-29T08:44:30.050Z,-4.35
2023-01-29T08:47:13.915Z,-4.68
2023-01-29T08:49:42.611Z,-4.88
2023-01-29T08:52:11.289Z,-4.88
2023-01-29T08:54:39.973Z,-5.21
2023-01-29T08:57:08.471Z,-5.30
2023-01-29T08:59:39.174Z,-5.39
2023-01-29T09:02:07.714Z,-5.69
2023-01-29T09:04:36.419Z,-5.41
2023-01-29T09:07:05.174Z,-5.21
2023-01-29T09:09:33.944Z,-5.12
2023-01-29T09:12:02.910Z,-5.10
2023-01-29T09:14:31.439Z,-5.06
2023-01-29T09:17:02.132Z,-5.09
2023-01-29T09:19:32.178Z,-5.04
2023-01-29T09:22:01.076Z,-4.96
2023-01-29T09:24:30.688Z,-5.08
2023-01-29T09:26:59.660Z,-5.04
2023-01-29T09:29:29.428Z,-5.02
2023-01-29T09:32:00.145Z,-5.09
2023-01-29T09:34:28.859Z,-5.25
2023-01-29T09:36:57.547Z,-5.24
2023-01-29T09:39:27.521Z,-5.34
2023-01-29T09:42:16.663Z,-5.59
2023-01-29T09:44:56.296Z,-5.31
2023-01-29T09:47:28.980Z,-5.42
2023-01-29T09:50:14.628Z,-5.25
2023-01-29T09:53:02.555Z,-5.42
2023-01-29T09:55:42.236Z,-5.27
2023-01-29T09:58:28.652Z,-5.17
2023-01-29T10:01:37.514Z,-5.34
2023-01-29T10:04:51.430Z,-5.41
2023-01-29T10:07:32.436Z,-5.43
2023-01-29T10:10:19.109Z,-5.58
2023-01-29T10:13:09.495Z,-5.40
2023-01-29T10:15:59.059Z,-5.41
2023-01-29T10:18:36.001Z,-5.44
2023-01-29T10:21:27.637Z,-5.46
2023-01-29T10:24:06.737Z,-5.53
2023-01-29T10:26:38.598Z,-5.70
2023-01-29T10:29:09.058Z,-5.93
2023-01-29T10:31:41.151Z,-5.74
2023-01-29T10:34:17.080Z,-5.98
2023-01-29T10:36:49.541Z,-6.46
2023-01-29T10:39:23.897Z,-6.14
2023-01-29T10:42:20.506Z,-6.12
2023-01-29T10:45:15.154Z,-6.18
2023-01-29T10:48:08.858Z,-6.25
2023-01-29T10:51:02.897Z,-6.82
2023-01-29T10:53:52.455Z,-6.40
2023-01-29T10:56:26.627Z,-6.50
2023-01-29T10:59:02.426Z,-6.61
2023-01-29T11:01:31.165Z,-6.70
2023-01-29T11:04:05.353Z,-6.81
2023-01-29T11:06:36.337Z,-6.97
2023-01-29T11:09:38.406Z,-7.02
2023-01-29T11:12:18.239Z,-7.25
2023-01-29T11:14:56.869Z,-7.28
2023-01-29T11:17:28.284Z,-7.32
2023-01-29T11:19:57.294Z,-7.46
2023-01-29T11:22:31.007Z,-7.46
2023-01-29T11:25:19.457Z,-7.54
2023-01-29T11:27:55.487Z,-7.78
2023-01-29T11:30:38.632Z,-8.30
2023-01-29T11:33:12.949Z,-8.10
2023-01-29T11:35:41.668Z,-8.11
2023-01-29T11:38:28.453Z,-8.40
2023-01-29T11:41:15.358Z,-8.91
2023-01-29T11:43:44.137Z,-8.59
2023-01-29T11:46:16.294Z,-9.02
2023-01-29T11:48:58.980Z,-8.55
2023-01-29T11:51:31.228Z,-8.64
2023-01-29T11:54:05.275Z,-8.91
2023-01-29T11:56:42.027Z,-8.88
2023-01-29T11:59:28.645Z,-8.93
2023-01-29T12:02:04.123Z,-9.24
2023-01-29T12:04:32.801Z,-9.14
2023-01-29T12:07:01.361Z,-9.77
2023-01-29T12:09:32.245Z,-9.53
2023-01-29T12:12:36.279Z,-9.38
2023-01-29T12:15:27.022Z,-9.60
2023-01-29T12:18:14.562Z,-9.85
2023-01-29T12:20:56.970Z,-9.88
2023-01-29T12:23:26.503Z,-9.86
2023-01-29T12:26:08.298Z,-9.79
2023-01-29T12:28:42.536Z,-9.91
2023-01-29T12:31:28.071Z,-9.90
2023-01-29T12:34:35.442Z,-9.90
2023-01-29T12:37:14.650Z,-10.00
2023-01-29T12:39:43.359Z,-10.10
2023-01-29T12:42:14.798Z,-9.93
2023-01-29T12:44:49.360Z,-10.09
2023-01-29T12:47:47.047Z,-10.19
2023-01-29T12:50:29.318Z,-10.03
2023-01-29T12:53:06.006Z,-10.13
2023-01-29T12:55:43.400Z,-10.10
2023-01-29T12:58:17.259Z,-10.36
2023-01-29T13:00:49.928Z,-10.29
2023-01-29T13:03:31.924Z,-10.11
2023-01-29T13:06:15.863Z,-10.21
2023-01-29T13:08:54.644Z,-10.04
2023-01-29T13:11:30.800Z,-10.24
2023-01-29T13:14:30.777Z,-10.05
2023-01-29T13:17:13.838Z,-10.39
2023-01-29T13:19:46.350Z,-10.03
2023-01-29T13:22:25.497Z,-9.76
2023-01-29T13:25:04.552Z,-9.81
2023-01-29T13:27:36.053Z,-10.14
2023-01-29T13:30:05.740Z,-9.75
2023-01-29T13:32:36.700Z,-9.74
2023-01-29T13:35:15.620Z,-9.58
2023-01-29T13:37:51.444Z,-9.50
2023-01-29T13:40:28.784Z,-9.54
2023-01-29T13:43:00.466Z,-9.84
2023-01-29T13:45:36.062Z,-9.43
2023-01-29T13:48:21.785Z,-9.41
2023-01-29T13:50:53.198Z,-9.54
2023-01-29T13:53:29.059Z,-9.43
2023-01-29T13:56:30.988Z,-9.36
2023-01-29T13:59:01.743Z,-9.53
2023-01-29T14:01:48.535Z,-9.31
2023-01-29T14:04:20.413Z,-9.29
2023-01-29T14:06:54.181Z,-9.39
2023-01-29T14:09:40.524Z,-9.26
2023-01-29T14:12:24.236Z,-9.27
2023-01-29T14:15:04.935Z,-9.26
2023-01-29T14:17:33.585Z,-9.36
2023-01-29T14:20:22.332Z,-9.33
2023-01-29T14:23:02.913Z,-9.24
2023-01-29T14:25:34.698Z,-9.29
2023-01-29T14:28:05.722Z,-9.25
2023-01-29T14:30:36.414Z,-9.27
2023-01-29T14:33:06.255Z,-9.39
2023-01-29T14:35:50.211Z,-9.44
2023-01-29T14:38:19.112Z,-9.28
2023-01-29T14:40:48.337Z,-9.26
2023-01-29T14:43:22.531Z,-9.50
2023-01-29T14:45:52.355Z,-9.10
2023-01-29T14:48:48.294Z,-8.97
2023-01-29T14:51:18.895Z,-9.17
2023-01-29T14:54:27.457Z,-8.99
2023-01-29T14:57:01.133Z,-9.12
2023-01-29T14:59:44.833Z,-9.06
2023-01-29T15:02:42.230Z,-8.91
2023-01-29T15:05:21.213Z,-9.43
2023-01-29T15:08:09.591Z,-9.03
2023-01-29T15:10:46.853Z,-9.02
2023-01-29T15:13:43.793Z,-8.85
2023-01-29T15:16:26.603Z,-9.35
2023-01-29T15:19:05.389Z,-8.92
2023-01-29T15:21:33.886Z,-8.92
2023-01-29T15:24:07.645Z,-8.80
2023-01-29T15:26:37.520Z,-9.03
2023-01-29T15:29:06.580Z,-9.32
2023-01-29T15:31:38.001Z,-8.83
2023-01-29T15:34:08.527Z,-9.26
2023-01-29T15:36:38.102Z,-8.73
2023-01-29T15:39:20.823Z,-8.94
2023-01-29T15:41:51.364Z,-8.80
2023-01-29T15:44:23.465Z,-8.85
2023-01-29T15:47:02.124Z,-8.67
2023-01-29T15:49:35.842Z,-8.64
2023-01-29T15:52:09.401Z,-8.65
2023-01-29T15:54:38.372Z,-8.61
2023-01-29T15:57:07.798Z,-8.66
2023-01-29T15:59:44.679Z,-8.68
2023-01-29T16:02:26.284Z,-8.63
2023-01-29T16:04:56.821Z,-8.71
2023-01-29T16:07:25.751Z,-9.05
2023-01-29T16:09:56.444Z,-8.69
2023-01-29T16:12:25.582Z,-8.66
2023-01-29T16:14:54.559Z,-8.65
2023-01-29T16:17:30.841Z,-8.59
2023-01-29T16:20:05.989Z,-8.52
2023-01-29T16:22:38.084Z,-9.09
2023-01-29T16:25:13.310Z,-8.58
2023-01-29T16:27:44.649Z,-8.55
2023-01-29T16:30:18.364Z,-8.55
2023-01-29T16:32:47.186Z,-8.46
2023-01-29T16:35:17.763Z,-8.64
2023-01-29T16:37:52.356Z,-8.48
2023-01-29T16:40:33.424Z,-8.61
2023-01-29T16:43:20.714Z,-8.50
2023-01-29T16:46:05.182Z,-8.50
2023-01-29T16:48:36.557Z,-8.71
2023-01-29T16:51:15.854Z,-8.59
2023-01-29T16:53:56.512Z,-8.72
2023-01-29T16:56:27.015Z,-8.80
2023-01-29T16:58:58.976Z,-8.75
2023-01-29T17:01:30.857Z,-8.95
2023-01-29T17:04:08.600Z,-8.71
2023-01-29T17:06:37.663Z,-8.81
2023-01-29T17:09:07.448Z,-8.79
2023-01-29T17:11:39.854Z,-9.08
2023-01-29T17:14:10.128Z,-8.92
2023-01-29T17:16:51.922Z,-8.79
2023-01-29T17:19:21.023Z,-8.69
2023-01-29T17:21:49.748Z,-8.90
2023-01-29T17:24:18.385Z,-8.74
2023-01-29T17:26:47.139Z,-8.99
2023-01-29T17:29:24.278Z,-8.90
2023-01-29T17:31:53.005Z,-9.06
2023-01-29T17:34:22.224Z,-9.08
2023-01-29T17:36:50.980Z,-9.06
2023-01-29T17:39:25.006Z,-9.01
2023-01-29T17:41:58.584Z,-9.33
2023-01-29T17:44:27.185Z,-9.18
2023-01-29T17:46:56.007Z,-9.18
2023-01-29T17:49:33.343Z,-9.44
2023-01-29T17:52:02.115Z,-9.49
2023-01-29T17:54:31.014Z,-9.52
2023-01-29T17:56:59.799Z,-9.56
2023-01-29T17:59:33.836Z,-9.34
2023-01-29T18:02:02.762Z,-10.08
2023-01-29T18:04:31.433Z,-9.45
2023-01-29T18:07:02.167Z,-9.74
2023-01-29T18:09:30.851Z,-9.53
2023-01-29T18:11:59.476Z,-9.62
2023-01-29T18:14:28.098Z,-9.49
2023-01-29T18:16:57.428Z,-9.63
2023-01-29T18:19:31.851Z,-9.71
2023-01-29T18:22:00.712Z,-9.79
2023-01-29T18:24:29.431Z,-9.80
2023-01-29T18:26:58.413Z,-9.56
2023-01-29T18:29:30.778Z,-9.73
2023-01-29T18:31:59.474Z,-9.81
2023-01-29T18:34:28.253Z,-9.79
2023-01-29T18:36:56.879Z,-9.84
2023-01-29T18:39:25.978Z,-9.84
2023-01-29T18:41:54.769Z,-9.81
2023-01-29T18:44:23.456Z,-10.58
2023-01-29T18:46:52.160Z,-9.91
2023-01-29T18:49:20.867Z,-9.93
2023-01-29T18:51:52.383Z,-9.88
2023-01-29T18:54:22.232Z,-10.07
2023-01-29T18:57:13.585Z,-10.08
2023-01-29T18:59:40.593Z,-10.32
2023-01-29T19:02:16.650Z,-10.03
2023-01-29T19:04:46.097Z,-10.25
2023-01-29T19:07:16.156Z,-10.23
2023-01-29T19:09:47.368Z,-10.22
2023-01-29T19:12:16.062Z,-10.59
2023-01-29T19:14:44.868Z,-10.04
2023-01-29T19:17:13.676Z,-10.28
2023-01-29T19:19:42.316Z,-10.57
2023-01-29T19:22:11.072Z,-10.27
2023-01-29T19:24:39.920Z,-10.17
2023-01-29T19:27:08.561Z,-10.09
2023-01-29T19:29:37.162Z,-10.23
2023-01-29T19:32:06.098Z,-10.02
2023-01-29T19:34:35.127Z,-10.00
2023-01-29T19:37:04.415Z,-10.15
2023-01-29T19:39:34.595Z,-10.09
2023-01-29T19:42:03.281Z,-9.95
2023-01-29T19:44:31.864Z,-9.99
2023-01-29T19:47:00.593Z,-10.03
2023-01-29T19:49:34.740Z,-9.88
2023-01-29T19:52:04.001Z,-9.96
2023-01-29T19:54:32.504Z,-9.93
2023-01-29T19:57:01.162Z,-9.87
2023-01-29T19:59:32.616Z,-9.77
2023-01-29T20:02:01.365Z,-9.87
2023-01-29T20:04:30.819Z,-9.91
2023-01-29T20:07:00.202Z,-9.87
2023-01-29T20:09:31.927Z,-9.76
2023-01-29T20:12:06.058Z,-9.99
2023-01-29T20:14:35.017Z,-9.87
2023-01-29T20:17:03.330Z,-9.96
2023-01-29T20:19:33.379Z,-9.76
2023-01-29T20:22:02.225Z,-9.79
2023-01-29T20:24:32.801Z,-9.69
2023-01-29T20:27:02.676Z,-9.61
2023-01-29T20:29:31.318Z,-10.19
2023-01-29T20:32:01.109Z,-9.95
2023-01-29T20:34:29.919Z,-9.62
2023-01-29T20:37:01.199Z,-9.77
2023-01-29T20:39:29.900Z,-10.30
2023-01-29T20:41:58.975Z,-9.77
2023-01-29T20:44:27.694Z,-9.89
2023-01-29T20:46:57.434Z,-9.84
2023-01-29T20:49:26.796Z,-9.97
2023-01-29T20:51:55.473Z,-9.84
2023-01-29T20:54:25.262Z,-9.90
2023-01-29T20:56:55.556Z,-10.24
2023-01-29T20:59:25.319Z,-10.40
2023-01-29T21:01:53.886Z,-10.22
2023-01-29T21:04:23.736Z,-10.70
2023-01-29T21:06:52.176Z,-10.70
2023-01-29T21:09:24.097Z,-10.80
2023-01-29T21:11:55.029Z,-10.87
2023-01-29T21:14:23.558Z,-11.20
2023-01-29T21:16:52.066Z,-11.20
2023-01-29T21:19:20.715Z,-11.37
2023-01-29T21:21:49.177Z,-11.93
2023-01-29T21:24:19.614Z,-11.64
2023-01-29T21:26:48.321Z,-11.76
2023-01-29T21:29:16.781Z,-11.70
2023-01-29T21:31:45.657Z,-11.84
2023-01-29T21:34:14.106Z,-12.45
2023-01-29T21:36:47.460Z,-12.17
2023-01-29T21:39:27.036Z,-12.11
2023-01-29T21:42:14.074Z,-12.46
2023-01-29T21:44:42.396Z,-12.56
2023-01-29T21:47:13.634Z,-12.64
2023-01-29T21:49:43.639Z,-13.38
2023-01-29T21:52:13.999Z,-12.58
2023-01-29T21:54:44.184Z,-12.89
2023-01-29T21:57:15.614Z,-12.68
2023-01-29T21:59:47.739Z,-12.73
2023-01-29T22:02:23.389Z,-12.95
2023-01-29T22:04:53.055Z,-13.05
2023-01-29T22:07:29.198Z,-13.16
2023-01-29T22:09:58.033Z,-13.62
2023-01-29T22:12:27.117Z,-13.33
2023-01-29T22:15:00.014Z,-14.16
2023-01-29T22:17:28.516Z,-13.38
2023-01-29T22:19:56.975Z,-13.38
2023-01-29T22:22:25.596Z,-13.62
2023-01-29T22:24:55.695Z,-13.72
2023-01-29T22:27:24.526Z,-13.70
2023-01-29T22:29:56.056Z,-14.49
2023-01-29T22:32:24.645Z,-13.71
2023-01-29T22:34:53.172Z,-13.97
2023-01-29T22:37:21.817Z,-13.87
2023-01-29T22:39:50.377Z,-13.91
2023-01-29T22:42:21.194Z,-13.88
2023-01-29T22:44:52.524Z,-13.81
2023-01-29T22:47:21.026Z,-14.50
2023-01-29T22:49:51.929Z,-14.06
2023-01-29T22:52:23.288Z,-14.29
2023-01-29T22:54:52.026Z,-14.32
2023-01-29T22:57:20.614Z,-14.12
2023-01-29T22:59:48.991Z,-14.15
2023-01-29T23:02:17.516Z,-14.87
2023-01-29T23:04:45.929Z,-14.20
2023-01-29T23:07:14.434Z,-14.20
2023-01-29T23:09:43.052Z,-14.89
2023-01-29T23:12:11.581Z,-14.67
2023-01-29T23:14:40.628Z,-14.50
2023-01-29T23:17:08.849Z,-14.64
2023-01-29T23:19:39.100Z,-14.65
2023-01-29T23:22:22.287Z,-14.72
2023-01-29T23:24:50.630Z,-14.77
2023-01-29T23:27:19.335Z,-14.79
2023-01-29T23:29:49.989Z,-14.72
2023-01-29T23:32:21.349Z,-14.77
2023-01-29T23:34:49.982Z,-14.94
2023-01-29T23:37:18.526Z,-14.98
2023-01-29T23:39:46.967Z,-15.15
2023-01-29T23:42:15.656Z,-15.16
2023-01-29T23:44:44.102Z,-15.03
2023-01-29T23:47:12.676Z,-15.28
2023-01-29T23:49:41.198Z,-15.38
2023-01-29T23:52:09.681Z,-15.33
2023-01-29T23:54:38.281Z,-15.41
2023-01-29T23:57:06.713Z,-15.20
2023-01-29T23:59:36.392Z,-15.45
